Flight Track Log - Related Links

Times and Time Zones

All times are in EST time to prevent confusion due to time zone crossing. See the EJA829P flight status page for this flight to view local times or setup timezone preferences in your user account.

Time Position Orientation Groundspeed Altitude Reporting Facility
EST Latitude Longitude Course Direction KTS MPH feet Rate Location/Type
Thu 07:20:53 PM 35.1992 -80.9378 176° South 171 197 1,800  Level Atlanta Center
Thu 07:21:42 PM 35.1553 -80.9344 176° South 207 238 5,100 4,036 Climbing Atlanta Center
Thu 07:22:43 PM 35.1364 -80.8514 106° East 300 345 9,200 3,600 Climbing Atlanta Center
Thu 07:23:42 PM 35.2111 -80.8308 13° North 317 365 12,300 2,420 Climbing Atlanta Center
Thu 07:24:42 PM 35.2906 -80.8428 353° North 317 365 14,000 850 Climbing Atlanta Center
Thu 07:25:42 PM 35.3889 -80.8517 356° North 339 390 14,000 800 Level Atlanta Center
Thu 07:26:42 PM 35.4833 -80.8711 350° North 344 396 15,600 1,850 Climbing Atlanta Center
Thu 07:27:42 PM 35.5803 -80.9081 343° North 354 407 17,700 1,800 Climbing Atlanta Center
Thu 07:28:42 PM 35.6897 -80.9450 345° North 367 422 19,200 1,550 Climbing Atlanta Center
Thu 07:29:42 PM 35.7928 -80.9769 346° North 372 428 20,800 1,450 Climbing Atlanta Center
Thu 07:30:42 PM 35.8958 -81.0139 344° North 372 428 22,100 1,150 Climbing Atlanta Center
Thu 07:31:42 PM 36.0075 -81.0561 343° North 406 467 23,100 1,050 Climbing Atlanta Center
Thu 07:32:42 PM 36.1147 -81.0906 345° North 406 467 24,200 1,100 Climbing Atlanta Center
Thu 07:33:42 PM 36.2239 -81.1278 345° North 401 461 25,300 1,000 Climbing Atlanta Center
Thu 07:34:42 PM 36.3311 -81.1653 344° North 401 461 26,200 900 Climbing Atlanta Center
Thu 07:35:42 PM 36.4406 -81.2025 345° North 401 461 27,100 900 Climbing Atlanta Center
Thu 07:36:42 PM 36.5478 -81.2400 344° North 401 461 28,000 845 Climbing Atlanta Center
Thu 07:39:08 PM 36.7906 -81.3247 344° North 383 441 30,000 577 Climbing Indianapolis Center
Thu 07:40:10 PM 36.8919 -81.3600 344° North 387 445 30,000  Level Indianapolis Center
Thu 07:41:12 PM 37.0128 -81.4014 345° North 387 445 30,000  Level Indianapolis Center
Thu 07:42:14 PM 37.1217 -81.4389 345° North 396 456 30,000  Level Indianapolis Center
Thu 07:43:16 PM 37.2289 -81.4769 344° North 400 460 30,000  Level Indianapolis Center
Thu 07:44:18 PM 37.3353 -81.5150 344° North 398 458 30,000  Level Indianapolis Center
Thu 07:45:20 PM 37.4428 -81.5528 344° North 400 460 30,000  Level Indianapolis Center
Thu 07:46:22 PM 37.5508 -81.5911 344° North 402 463 30,000  Level Indianapolis Center
Thu 07:47:24 PM 37.6772 -81.6361 344° North 404 465 30,000  Level Indianapolis Center
Thu 07:48:25 PM 37.7861 -81.6756 344° North 405 466 30,000  Level Indianapolis Center
Thu 07:49:27 PM 37.8808 -81.7094 344° North 404 465 30,000  Level Indianapolis Center
Thu 07:50:29 PM 38.0136 -81.7561 345° North 410 472 30,000  Level Indianapolis Center
Thu 07:51:31 PM 38.1236 -81.7958 344° North 408 470 30,000  Level Indianapolis Center
Thu 07:52:33 PM 38.2347 -81.8367 344° North 412 474 30,000  Level Indianapolis Center
Thu 07:53:35 PM 38.3472 -81.8772 344° North 415 478 30,000  Level Indianapolis Center
Thu 07:54:37 PM 38.4594 -81.9194 344° North 416 479 30,000  Level Indianapolis Center
Thu 07:55:38 PM 38.5728 -81.9600 344° North 417 480 30,000  Level Indianapolis Center
Thu 07:56:40 PM 38.6864 -82.0014 344° North 419 482 30,000  Level Indianapolis Center
Thu 07:57:42 PM 38.7978 -82.0508 341° North 420 483 30,000  Level Indianapolis Center
Thu 07:58:44 PM 38.9042 -82.1133 335° Northwest 418 481 30,000  Level Indianapolis Center
Thu 07:59:46 PM 39.0100 -82.1736 336° Northwest 414 476 30,000  Level Indianapolis Center
Thu 08:00:48 PM 39.1367 -82.2486 335° Northwest 416 479 30,000  Level Indianapolis Center
Thu 08:01:49 PM 39.2436 -82.3094 336° Northwest 417 480 30,000  Level Indianapolis Center
Thu 08:02:51 PM 39.3508 -82.3706 336° Northwest 419 482 30,000  Level Indianapolis Center
Thu 08:03:53 PM 39.4550 -82.4328 335° Northwest 422 486 30,000  Level Indianapolis Center
Thu 08:04:55 PM 39.5622 -82.4939 336° Northwest 422 486 30,000  Level Indianapolis Center
Thu 08:05:57 PM 39.6675 -82.5572 335° Northwest 418 481 30,000  Level Indianapolis Center
Thu 08:06:59 PM 39.7958 -82.6317 336° Northwest 423 487 30,000  Level Indianapolis Center
Thu 08:08:01 PM 39.9028 -82.6953 335° Northwest 426 490 30,000  Level Indianapolis Center
Thu 08:09:02 PM 40.0103 -82.7600 335° Northwest 427 491 30,000  Level Indianapolis Center
Thu 08:10:04 PM 40.1150 -82.8217 336° Northwest 419 482 30,000 -387 Level Indianapolis Center
Thu 08:11:06 PM 40.2219 -82.8856 335° Northwest 425 489 29,200 -1,452 Descending Indianapolis Center
Thu 08:12:08 PM 40.3269 -82.9492 335° Northwest 422 486 27,000 -2,371 Descending Indianapolis Center
Thu 08:13:10 PM 40.4561 -83.0264 336° Northwest 427 491 24,300 -1,548 Descending Indianapolis Center
Thu 08:14:12 PM 40.5625 -83.0917 335° Northwest 422 486 23,800 -1,024 Descending Indianapolis Center
Thu 08:15:13 PM 40.6678 -83.1547 336° Northwest 413 475 22,200 -1,122 Descending Indianapolis Center
Thu 08:16:15 PM 40.7667 -83.2153 335° Northwest 406 467 21,500 -1,500 Descending Indianapolis Center
Thu 08:17:17 PM 40.8708 -83.2792 335° Northwest 393 452 19,100 -2,081 Descending Indianapolis Center
Thu 08:18:19 PM 40.9664 -83.3375 335° Northwest 378 435 17,200 -2,000 Descending Indianapolis Center
Thu 08:19:20 PM 41.0578 -83.3931 335° Northwest 361 415 15,000 -2,098 Descending Indianapolis Center
Thu 08:20:22 PM 41.1461 -83.4475 335° Northwest 349 402 12,900 -2,226 Descending Indianapolis Center
Thu 08:21:24 PM 41.2444 -83.5022 337° Northwest 328 377 10,400 -2,323 Descending Indianapolis Center
Thu 08:22:26 PM 41.3203 -83.5289 345° North 285 328 8,100 -2,439 Descending Indianapolis Center
Thu 08:23:27 PM 41.3925 -83.5542 345° North 270 311 5,400 -2,488 Descending Indianapolis Center
Thu 08:24:29 PM 41.4647 -83.5747 348° North 267 307 3,000 -1,161 Descending Indianapolis Center
Thu 08:25:31 PM 41.5356 -83.5933 349° North 261 300 3,000  Level Indianapolis Center
Thu 08:26:33 PM 41.5986 -83.6158 345° North 253 291 3,000 -336 Level Indianapolis Center
Thu 08:27:54 PM 41.6311 -83.6692 309° West 177 204 2,200 -378 Descending Cleveland Center
Thu 08:28:56 PM 41.6181 -83.7089 246° West 140 161 2,100 -336 Descending Cleveland Center
Thu 08:29:59 PM 41.6075 -83.7411 246° West 116 133 1,500 -571 Descending Cleveland Center
Thu 08:31:00 PM 41.5833 -83.8000 323° Northwest  Level FlightAware Approximate

Login

Don't have an account? Register now (free) for customized features, flight alerts, and more!